Time;durP1;ratioP1;P1;durP2;ratioP2;P2;SDS_P1;SDS_P2;PMS_P1;PMS_P2;Temp;Humidity;BMP_temperature;BMP_pressure;BME280_temperature;BME280_humidity;BME280_pressure;Samples;Min_cycle;Max_cycle;Signal;HPM_P1;HPM_P2
2021/06/27 02:45:34;;;;;;;10.18;6.45;;;19.80;90.00;;;;;;5585662;25;20765;31
2021/06/27 02:48:00;;;;;;;6.28;5.68;;;19.80;90.00;;;;;;4672369;30;20312;-74
2021/06/27 02:50:26;;;;;;;6.68;5.45;;;19.80;89.90;;;;;;4674766;30;20045;-74
2021/06/27 02:52:52;;;;;;;10.70;5.85;;;19.80;89.80;;;;;;4673470;30;20042;-75
2021/06/27 02:55:18;;;;;;;8.30;6.30;;;19.90;89.80;;;;;;4671229;30;20099;-74
2021/06/27 02:57:44;;;;;;;6.85;6.00;;;19.90;90.00;;;;;;4673703;30;20278;-73
2021/06/27 03:00:15;;;;;;;7.40;5.70;;;19.90;90.00;;;;;;4683884;30;20309;-72
2021/06/27 03:02:42;;;;;;;6.47;5.80;;;19.90;89.70;;;;;;4657299;30;20047;-73
2021/06/27 03:05:09;;;;;;;7.78;5.72;;;19.90;89.70;;;;;;4664243;30;20042;-73
2021/06/27 03:07:35;;;;;;;7.85;6.28;;;19.90;90.00;;;;;;4669769;30;20093;-73
2021/06/27 03:10:01;;;;;;;6.80;5.88;;;19.80;89.80;;;;;;4669282;30;20051;-73
2021/06/27 03:12:27;;;;;;;8.80;5.88;;;19.80;89.70;;;;;;4674402;30;20038;-73
2021/06/27 03:14:52;;;;;;;13.23;6.78;;;19.80;90.00;;;;;;4664311;30;20031;-74
2021/06/27 03:17:18;;;;;;;7.03;5.25;;;19.80;90.00;;;;;;4682735;30;20035;-74
2021/06/27 03:19:44;;;;;;;7.35;5.55;;;19.80;90.00;;;;;;4669444;30;20047;-74
2021/06/27 03:22:10;;;;;;;7.50;6.25;;;19.70;89.90;;;;;;4663531;30;20043;-73
2021/06/27 03:24:35;;;;;;;8.35;6.65;;;19.70;89.90;;;;;;4686900;30;20044;-73
2021/06/27 03:27:01;;;;;;;7.40;5.93;;;19.70;90.10;;;;;;4665615;30;20043;-74
2021/06/27 03:29:27;;;;;;;8.77;6.55;;;19.70;90.10;;;;;;4677291;30;20334;-73
2021/06/27 03:31:53;;;;;;;8.45;5.93;;;19.70;90.30;;;;;;4676829;30;20247;-73
2021/06/27 03:34:20;;;;;;;8.27;5.53;;;19.60;90.40;;;;;;4658530;30;20030;-74
2021/06/27 03:36:46;;;;;;;10.70;7.05;;;19.60;90.50;;;;;;4674259;30;20046;-73
2021/06/27 03:39:14;;;;;;;8.60;6.25;;;19.60;90.60;;;;;;4674267;30;20039;-73
2021/06/27 03:41:43;;;;;;;8.75;6.03;;;19.70;90.40;;;;;;4671725;30;20229;-73
2021/06/27 03:44:09;;;;;;;11.20;6.07;;;19.80;90.40;;;;;;4682712;30;20045;-74
2021/06/27 03:46:34;;;;;;;6.53;5.85;;;19.80;90.60;;;;;;4679601;30;20097;-73
2021/06/27 03:49:02;;;;;;;8.02;6.28;;;19.90;90.30;;;;;;4680290;30;20319;-73
2021/06/27 03:51:28;;;;;;;6.43;5.82;;;20.00;90.20;;;;;;4665751;30;20061;-73
2021/06/27 03:53:54;;;;;;;11.32;6.57;;;20.10;90.10;;;;;;4666258;30;20299;-73
2021/06/27 03:56:20;;;;;;;8.18;6.53;;;20.20;90.10;;;;;;4657079;30;20118;-73
2021/06/27 03:58:47;;;;;;;9.90;5.90;;;20.20;89.80;;;;;;4671158;30;20035;-73
2021/06/27 04:01:13;;;;;;;;;;;20.30;89.60;;;;;;4672357;30;20034;-73
2021/06/27 04:03:39;;;;;;;13.57;6.60;;;20.40;89.30;;;;;;4668171;30;19991;-74
2021/06/27 04:06:05;;;;;;;8.60;6.80;;;20.40;89.40;;;;;;4668575;30;20034;-73
2021/06/27 04:08:32;;;;;;;9.88;6.13;;;20.50;89.30;;;;;;4687351;30;20306;-73
2021/06/27 04:10:58;;;;;;;8.70;6.68;;;20.60;89.00;;;;;;4673901;30;20072;-73
2021/06/27 04:13:29;;;;;;;8.85;6.60;;;20.70;89.00;;;;;;4676600;30;20307;-73
2021/06/27 04:15:56;;;;;;;9.48;5.35;;;20.80;89.40;;;;;;4666980;30;20034;-73
2021/06/27 04:18:23;;;;;;;7.93;6.85;;;20.90;88.30;;;;;;4671528;30;20093;-73
2021/06/27 04:20:49;;;;;;;7.07;6.18;;;20.90;88.10;;;;;;4682249;30;20218;-73
2021/06/27 04:23:16;;;;;;;7.47;5.78;;;20.90;87.90;;;;;;4669785;30;20328;-74
2021/06/27 04:25:42;;;;;;;10.18;6.05;;;21.00;87.90;;;;;;4667371;30;20269;-73
2021/06/27 04:28:08;;;;;;;6.85;6.10;;;21.00;87.50;;;;;;4664818;30;20106;-73
2021/06/27 04:30:35;;;;;;;9.32;6.55;;;21.10;87.20;;;;;;4666785;30;20046;-73
2021/06/27 04:33:01;;;;;;;7.30;5.72;;;21.20;86.80;;;;;;4664977;30;20105;-73
2021/06/27 04:35:27;;;;;;;11.88;6.03;;;21.30;86.60;;;;;;4666696;30;20042;-73
2021/06/27 04:37:53;;;;;;;11.63;6.97;;;21.40;86.20;;;;;;4670688;30;20026;-73
2021/06/27 04:40:18;;;;;;;9.38;7.03;;;21.40;86.20;;;;;;4669750;30;20026;-73
2021/06/27 04:42:44;;;;;;;8.02;6.40;;;21.50;86.50;;;;;;4666091;30;20376;-74
2021/06/27 04:45:10;;;;;;;9.35;7.35;;;21.60;86.40;;;;;;4682585;30;20026;-73
2021/06/27 04:47:38;;;;;;;9.40;6.20;;;21.60;86.20;;;;;;4669951;30;20066;-74
2021/06/27 04:50:05;;;;;;;7.97;6.45;;;21.60;85.90;;;;;;4681341;30;20380;-74
2021/06/27 04:52:33;;;;;;;10.90;6.43;;;21.70;85.80;;;;;;4678956;30;20070;-74
2021/06/27 04:55:00;;;;;;;10.23;7.00;;;21.80;85.50;;;;;;4681224;30;20030;-74
2021/06/27 04:57:26;;;;;;;;;;;21.90;85.70;;;;;;4669491;30;20103;-74
2021/06/27 04:59:52;;;;;;;8.90;6.67;;;22.00;85.00;;;;;;4667236;30;19939;-73
2021/06/27 05:02:18;;;;;;;15.27;8.05;;;22.00;84.90;;;;;;4664565;30;20089;-73
2021/06/27 05:04:44;;;;;;;13.80;8.30;;;22.10;85.80;;;;;;4667105;30;20364;-73
2021/06/27 05:07:09;;;;;;;9.73;7.20;;;22.20;84.90;;;;;;4664945;30;20099;-73
2021/06/27 05:09:35;;;;;;;20.73;9.90;;;22.20;83.30;;;;;;4671368;30;20042;-75
2021/06/27 05:12:01;;;;;;;10.48;8.20;;;22.30;83.30;;;;;;4663174;30;20348;-73
2021/06/27 05:14:27;;;;;;;11.10;8.05;;;22.30;82.80;;;;;;4666814;30;20049;-75
2021/06/27 05:16:53;;;;;;;10.75;8.93;;;22.50;82.50;;;;;;4668444;30;20264;-74
2021/06/27 05:19:18;;;;;;;9.35;7.90;;;23.10;81.20;;;;;;4663350;30;20301;-77
2021/06/27 05:21:44;;;;;;;11.95;8.27;;;24.10;76.00;;;;;;4680173;30;20038;-76
2021/06/27 05:24:10;;;;;;;7.75;6.93;;;25.10;72.40;;;;;;4655231;30;20034;-76
2021/06/27 05:26:36;;;;;;;10.35;7.15;;;25.80;69.70;;;;;;4670262;30;20318;-76
2021/06/27 05:29:02;;;;;;;10.27;6.97;;;26.40;66.80;;;;;;4675549;30;20144;-76
2021/06/27 05:31:28;;;;;;;8.95;7.03;;;27.00;64.50;;;;;;4678343;30;20054;-75
2021/06/27 05:33:54;;;;;;;13.15;6.43;;;27.50;62.60;;;;;;4689544;30;20034;-77
2021/06/27 05:36:20;;;;;;;8.93;6.87;;;27.90;60.80;;;;;;4660620;30;20310;-76
2021/06/27 05:38:45;;;;;;;9.23;6.63;;;28.20;60.20;;;;;;4682543;30;20386;-76
2021/06/27 05:41:11;;;;;;;8.33;6.40;;;28.40;58.70;;;;;;4672379;30;20222;-76
2021/06/27 05:43:37;;;;;;;7.87;6.60;;;28.70;58.40;;;;;;4656786;30;20696;-76
2021/06/27 05:46:03;;;;;;;9.60;6.87;;;29.10;56.30;;;;;;4668615;30;20342;-76
2021/06/27 05:48:29;;;;;;;10.57;5.50;;;29.10;56.10;;;;;;4666127;30;20109;-77
2021/06/27 05:50:54;;;;;;;11.03;6.30;;;29.10;57.00;;;;;;4673718;30;20042;-77
2021/06/27 05:53:20;;;;;;;7.40;5.87;;;29.40;55.90;;;;;;4674631;30;20108;-77
2021/06/27 05:55:46;;;;;;;8.73;6.70;;;29.40;56.00;;;;;;4672156;30;20062;-76
2021/06/27 05:58:12;;;;;;;9.07;7.67;;;29.40;55.30;;;;;;4683626;30;20034;-77
2021/06/27 06:00:37;;;;;;;9.03;6.40;;;29.30;55.30;;;;;;4664642;30;20065;-77
2021/06/27 06:03:03;;;;;;;10.47;6.60;;;29.30;55.40;;;;;;4677968;30;20031;-76
2021/06/27 06:05:29;;;;;;;12.27;7.70;;;29.30;55.60;;;;;;4689188;30;20111;-76
2021/06/27 06:07:55;;;;;;;10.75;7.10;;;29.00;55.30;;;;;;4675564;30;20050;-76
2021/06/27 06:10:21;;;;;;;13.57;7.22;;;28.80;56.20;;;;;;4650215;30;20156;-76
2021/06/27 06:12:47;;;;;;;9.95;7.18;;;28.70;56.90;;;;;;4675651;30;20105;-77
2021/06/27 06:15:13;;;;;;;8.00;7.20;;;28.60;57.20;;;;;;4672126;30;20042;-75
2021/06/27 06:17:39;;;;;;;10.63;7.22;;;28.40;57.40;;;;;;4659838;30;20050;-76
2021/06/27 06:20:05;;;;;;;12.13;7.40;;;28.20;57.50;;;;;;4672892;30;20324;-77
2021/06/27 06:22:31;;;;;;;11.80;7.40;;;28.20;59.00;;;;;;4672715;30;20115;-76
2021/06/27 06:24:58;;;;;;;9.00;7.20;;;28.30;58.30;;;;;;4680103;30;20094;-76
2021/06/27 06:27:24;;;;;;;11.95;7.45;;;28.20;57.70;;;;;;4662270;30;20054;-75
2021/06/27 06:29:50;;;;;;;10.48;6.70;;;28.10;59.60;;;;;;4683278;30;20045;-75
2021/06/27 06:32:15;;;;;;;7.88;6.85;;;28.00;59.80;;;;;;4685615;30;20034;-76
2021/06/27 06:34:41;;;;;;;12.30;7.17;;;27.80;59.50;;;;;;4686820;30;20041;-76
2021/06/27 06:37:07;;;;;;;8.97;7.57;;;27.90;60.10;;;;;;4684209;30;20030;-76
2021/06/27 06:39:33;;;;;;;7.95;6.38;;;27.70;59.70;;;;;;4672137;30;20325;-76
2021/06/27 06:41:59;;;;;;;8.75;6.53;;;27.70;60.60;;;;;;4684712;30;20081;-76
2021/06/27 06:44:25;;;;;;;9.68;6.53;;;27.90;60.80;;;;;;4675651;30;20171;-76
2021/06/27 06:46:50;;;;;;;8.15;6.95;;;28.00;59.20;;;;;;4672891;30;20168;-76
2021/06/27 06:49:17;;;;;;;13.88;6.65;;;28.00;59.20;;;;;;4668100;30;20053;-76
2021/06/27 06:51:43;;;;;;;5.70;4.95;;;27.80;61.70;;;;;;4682775;30;20330;-76
2021/06/27 06:54:08;;;;;;;12.13;6.67;;;28.20;62.30;;;;;;4666849;30;20031;-76
2021/06/27 06:56:34;;;;;;;11.20;7.10;;;28.50;60.30;;;;;;4673558;30;20038;-76
2021/06/27 06:59:00;;;;;;;10.90;7.13;;;28.60;57.80;;;;;;4670415;30;20035;-76
2021/06/27 07:01:26;;;;;;;8.00;6.57;;;28.60;59.30;;;;;;4682089;30;20057;-76
2021/06/27 07:03:52;;;;;;;7.00;6.20;;;28.50;58.20;;;;;;4653151;30;20227;-76
2021/06/27 07:06:19;;;;;;;8.38;6.22;;;28.40;58.90;;;;;;4685193;30;20030;-76
2021/06/27 07:08:44;;;;;;;9.05;6.68;;;28.30;59.00;;;;;;4668209;30;20073;-76
2021/06/27 07:11:11;;;;;;;8.60;6.68;;;28.20;59.10;;;;;;4684350;30;20031;-76
2021/06/27 07:13:37;;;;;;;9.68;6.90;;;28.00;59.20;;;;;;4669993;30;20022;-76
2021/06/27 07:16:03;;;;;;;7.03;5.95;;;27.90;60.10;;;;;;4659978;30;20081;-76
2021/06/27 07:18:29;;;;;;;12.70;6.63;;;28.00;61.30;;;;;;4664039;30;20223;-76
2021/06/27 07:20:54;;;;;;;9.57;7.17;;;28.30;59.30;;;;;;4682229;30;20234;-76
2021/06/27 07:23:20;;;;;;;9.82;6.80;;;28.30;59.60;;;;;;4667849;30;20050;-77
2021/06/27 07:25:46;;;;;;;8.37;6.73;;;28.20;58.40;;;;;;4673378;30;20230;-76
2021/06/27 07:28:11;;;;;;;16.05;6.50;;;28.20;59.80;;;;;;4681707;30;20403;-76
2021/06/27 07:30:37;;;;;;;13.13;6.93;;;28.20;59.10;;;;;;4673127;30;20237;-76
2021/06/27 07:33:03;;;;;;;8.13;6.40;;;28.10;59.10;;;;;;4672510;30;20349;-76
2021/06/27 07:35:29;;;;;;;6.53;5.75;;;28.10;60.10;;;;;;4674859;30;20026;-76
2021/06/27 07:37:55;;;;;;;8.60;6.57;;;28.10;60.40;;;;;;4674185;30;20042;-76
2021/06/27 07:40:21;;;;;;;6.83;5.93;;;28.20;59.20;;;;;;4676364;30;20041;-77
2021/06/27 07:42:49;;;;;;;10.30;5.95;;;28.20;59.00;;;;;;4684138;30;20054;-76
2021/06/27 07:45:15;;;;;;;8.02;5.60;;;28.20;58.60;;;;;;4674158;30;20120;-76
2021/06/27 07:47:41;;;;;;;20.97;6.67;;;28.10;58.60;;;;;;4684644;30;20349;-76
2021/06/27 07:50:07;;;;;;;9.70;5.50;;;28.20;59.60;;;;;;4672709;30;20058;-76
2021/06/27 07:52:36;;;;;;;9.55;5.72;;;28.20;57.50;;;;;;4674115;30;20105;-76
2021/06/27 07:55:04;;;;;;;10.63;5.53;;;28.30;57.30;;;;;;4666327;30;20057;-75
2021/06/27 07:57:30;;;;;;;6.95;5.28;;;28.30;56.20;;;;;;4669138;30;20065;-76
2021/06/27 07:59:55;;;;;;;5.60;4.93;;;28.10;56.40;;;;;;4670632;30;20234;-76
2021/06/27 08:02:21;;;;;;;8.03;5.53;;;28.10;56.70;;;;;;4683823;30;20109;-76
2021/06/27 08:04:47;;;;;;;6.40;5.80;;;28.10;57.70;;;;;;4664299;30;20041;-76
2021/06/27 08:07:13;;;;;;;9.77;5.45;;;28.20;56.80;;;;;;4672955;30;20161;-74
2021/06/27 08:09:38;;;;;;;5.93;5.00;;;28.30;56.40;;;;;;4675556;30;20102;-76
2021/06/27 08:12:05;;;;;;;7.00;5.03;;;28.40;57.50;;;;;;4664270;30;20022;-77
2021/06/27 08:14:31;;;;;;;8.95;5.18;;;28.70;55.60;;;;;;4686596;30;20242;-75
2021/06/27 08:16:56;;;;;;;8.10;5.27;;;28.60;54.00;;;;;;4674015;30;20036;-76
2021/06/27 08:19:22;;;;;;;6.13;4.73;;;28.50;54.40;;;;;;4668226;30;20031;-76
2021/06/27 08:21:48;;;;;;;10.87;6.17;;;28.50;56.60;;;;;;4671636;30;20047;-76
2021/06/27 08:24:14;;;;;;;8.27;5.03;;;28.70;55.50;;;;;;4675367;30;20218;-76
2021/06/27 08:26:40;;;;;;;13.85;4.70;;;28.70;54.30;;;;;;4674170;30;20066;-76
2021/06/27 08:29:05;;;;;;;7.57;4.40;;;28.80;55.60;;;;;;4673846;30;20060;-76
2021/06/27 08:31:32;;;;;;;6.20;4.45;;;28.90;52.80;;;;;;4680570;30;20039;-76
2021/06/27 08:33:58;;;;;;;8.97;5.20;;;28.90;53.70;;;;;;4670076;30;20054;-76
2021/06/27 08:36:23;;;;;;;8.47;4.53;;;29.10;51.30;;;;;;4670902;30;20496;-76
2021/06/27 08:38:49;;;;;;;8.67;4.67;;;29.10;54.50;;;;;;4667229;30;20238;-76
2021/06/27 08:41:16;;;;;;;7.50;5.10;;;29.30;52.80;;;;;;4673756;30;20030;-76
2021/06/27 08:43:43;;;;;;;8.60;4.88;;;29.30;52.50;;;;;;4686134;30;20038;-76
2021/06/27 08:46:11;;;;;;;8.20;4.38;;;29.40;54.50;;;;;;4682102;30;20046;-76
2021/06/27 08:48:39;;;;;;;9.43;4.32;;;29.50;51.90;;;;;;4659411;30;20038;-75
2021/06/27 08:51:07;;;;;;;9.93;4.65;;;29.50;52.20;;;;;;4668530;30;20047;-75
2021/06/27 08:53:35;;;;;;;5.78;4.20;;;29.40;51.90;;;;;;4673799;30;20097;-76
2021/06/27 08:56:07;;;;;;;8.15;4.18;;;29.50;52.60;;;;;;4668820;30;20223;-75
2021/06/27 08:58:35;;;;;;;5.97;4.25;;;29.60;53.50;;;;;;4677873;30;20037;-76
2021/06/27 09:01:02;;;;;;;11.82;4.70;;;29.70;49.90;;;;;;4667304;30;20027;-76
2021/06/27 09:03:28;;;;;;;4.82;4.28;;;29.60;50.00;;;;;;4671527;30;20031;-76
2021/06/27 09:05:54;;;;;;;5.07;3.50;;;29.50;49.80;;;;;;4666701;30;20253;-75
2021/06/27 09:08:20;;;;;;;8.43;3.72;;;29.50;51.20;;;;;;4671333;30;20397;-75
2021/06/27 09:10:46;;;;;;;5.97;4.13;;;29.50;51.20;;;;;;4684170;30;20050;-75
2021/06/27 09:13:12;;;;;;;10.03;3.83;;;29.70;50.60;;;;;;4668020;30;20043;-77
2021/06/27 09:15:50;;;;;;;6.03;3.90;;;29.80;49.70;;;;;;4651679;30;20027;-75
2021/06/27 09:18:15;;;;;;;6.13;3.40;;;29.90;51.20;;;;;;4672896;30;20042;-74
2021/06/27 09:20:45;;;;;;;3.70;3.17;;;29.90;47.60;;;;;;4672372;30;20230;-77
2021/06/27 09:23:12;;;;;;;52.15;10.85;;;30.00;47.50;;;;;;4674366;30;20214;-78
2021/06/27 09:25:40;;;;;;;9.35;5.10;;;30.00;52.00;;;;;;4676875;30;20038;-79
2021/06/27 09:28:17;;;;;;;8.05;5.10;;;30.20;48.40;;;;;;4689218;30;20034;-78
2021/06/27 09:30:46;;;;;;;5.38;4.32;;;30.30;51.10;;;;;;4670924;30;20048;-77
2021/06/27 09:33:14;;;;;;;4.57;3.58;;;30.60;49.20;;;;;;4684064;30;20053;-77
2021/06/27 09:35:55;;;;;;;7.55;3.85;;;30.70;48.30;;;;;;4681792;30;20043;-78
2021/06/27 09:38:41;;;;;;;6.35;3.88;;;30.70;49.40;;;;;;4672354;30;20081;-78
2021/06/27 09:41:22;;;;;;;;;;;30.60;47.30;;;;;;4675399;30;20023;-78
2021/06/27 09:43:53;;;;;;;5.20;3.85;;;30.50;47.90;;;;;;4658267;30;19912;-78
2021/06/27 09:46:33;;;;;;;5.28;3.70;;;30.60;48.70;;;;;;4671645;30;20047;-78
2021/06/27 09:49:02;;;;;;;6.30;3.15;;;30.60;48.10;;;;;;4681980;30;20105;-79
2021/06/27 09:51:31;;;;;;;5.88;4.20;;;30.50;47.30;;;;;;4690626;30;20038;-78
2021/06/27 09:53:58;;;;;;;36.15;22.88;;;30.30;47.80;;;;;;4675528;30;20050;-78
2021/06/27 09:56:25;;;;;;;5.22;3.72;;;30.40;47.60;;;;;;4686234;30;20416;-76
2021/06/27 09:58:54;;;;;;;7.55;2.58;;;30.80;47.10;;;;;;4671395;30;20082;-78
2021/06/27 10:01:23;;;;;;;19.30;11.57;;;31.10;45.70;;;;;;4673917;30;20046;-78
2021/06/27 10:03:55;;;;;;;7.18;3.92;;;31.20;45.00;;;;;;4672465;30;20159;-78
2021/06/27 10:06:27;;;;;;;9.30;4.43;;;31.40;45.30;;;;;;4686868;30;20031;-80
2021/06/27 10:08:53;;;;;;;11.15;3.67;;;31.40;47.80;;;;;;4683725;30;20038;-79
2021/06/27 10:11:23;;;;;;;;;;;31.40;48.10;;;;;;4666261;30;20042;-78
2021/06/27 10:13:54;;;;;;;13.02;3.45;;;31.30;46.20;;;;;;4683552;30;19912;-79
2021/06/27 10:16:29;;;;;;;7.38;3.10;;;31.00;45.70;;;;;;4681201;30;20042;-80
2021/06/27 10:18:56;;;;;;;3.65;3.35;;;30.60;45.90;;;;;;4674503;30;20031;-79
2021/06/27 10:21:23;;;;;;;3.88;3.20;;;30.30;45.70;;;;;;4677357;30;20050;-79
2021/06/27 10:23:50;;;;;;;5.72;3.17;;;30.50;47.00;;;;;;4692305;30;20026;-79
2021/06/27 10:26:18;;;;;;;5.88;3.30;;;30.80;46.80;;;;;;4676844;30;20258;-78
2021/06/27 10:28:47;;;;;;;4.10;3.28;;;30.90;45.40;;;;;;4664903;30;20031;-81
2021/06/27 10:31:14;;;;;;;3.30;3.00;;;31.20;48.40;;;;;;4691708;30;20038;-80
2021/06/27 10:33:40;;;;;;;6.90;3.15;;;31.40;44.40;;;;;;4678613;30;20037;-79
2021/06/27 10:36:08;;;;;;;3.35;2.65;;;31.70;45.90;;;;;;4674742;30;20081;-79
2021/06/27 10:38:38;;;;;;;4.28;3.38;;;32.10;42.40;;;;;;4676205;30;20097;-79
2021/06/27 10:41:04;;;;;;;5.28;3.30;;;32.00;44.80;;;;;;4673647;30;20038;-80
2021/06/27 10:43:58;;;;;;;7.80;3.47;;;32.20;45.10;;;;;;4686689;30;20063;-79
2021/06/27 10:46:45;;;;;;;6.28;2.88;;;32.50;43.00;;;;;;4672563;30;20050;-79
2021/06/27 10:49:35;;;;;;;2.65;2.38;;;32.70;40.80;;;;;;4676120;30;20039;-79
2021/06/27 10:52:11;;;;;;;4.05;2.38;;;32.70;42.80;;;;;;4690617;30;20226;-80
2021/06/27 10:55:03;;;;;;;4.00;2.70;;;32.80;41.60;;;;;;4679573;30;20045;-77
2021/06/27 10:57:52;;;;;;;7.38;2.40;;;32.90;39.50;;;;;;4669439;30;20026;-78
2021/06/27 11:00:18;;;;;;;7.50;2.88;;;32.50;41.00;;;;;;4678930;30;20077;-78
2021/06/27 11:02:44;;;;;;;4.57;2.80;;;32.40;41.80;;;;;;4684167;30;20047;-78
2021/06/27 11:05:29;;;;;;;7.13;2.93;;;32.50;40.40;;;;;;4687366;30;20049;-80
2021/06/27 11:07:56;;;;;;;4.20;2.40;;;32.50;41.50;;;;;;4680403;30;20046;-79
2021/06/27 11:10:22;;;;;;;3.03;2.28;;;32.40;40.70;;;;;;4699322;30;20038;-79
2021/06/27 11:13:00;;;;;;;4.50;3.03;;;32.10;40.20;;;;;;4686168;30;20082;-80
2021/06/27 11:15:28;;;;;;;2.85;2.33;;;31.70;42.30;;;;;;4680971;30;20027;-79
2021/06/27 11:17:57;;;;;;;4.00;2.83;;;31.40;42.40;;;;;;4680290;30;20034;-80
2021/06/27 11:20:26;;;;;;;3.40;2.97;;;31.50;41.70;;;;;;4692889;30;20456;-81
2021/06/27 11:22:55;;;;;;;2.80;2.28;;;31.70;43.00;;;;;;4692928;30;20045;-82
2021/06/27 11:25:42;;;;;;;5.72;3.20;;;32.00;44.10;;;;;;4661400;30;20106;-81
2021/06/27 11:28:20;;;;;;;6.45;3.35;;;32.30;41.10;;;;;;4686851;30;20038;-82
2021/06/27 11:30:54;;;;;;;5.90;3.38;;;32.20;42.20;;;;;;4673815;30;20074;-81
2021/06/27 11:33:23;;;;;;;5.97;4.03;;;32.10;41.40;;;;;;4691495;30;20066;-83
2021/06/27 11:35:50;;;;;;;8.07;3.40;;;31.80;43.10;;;;;;4690940;30;20046;-82
2021/06/27 11:38:42;;;;;;;8.93;3.80;;;31.60;43.70;;;;;;4678045;30;20198;-82
2021/06/27 11:41:20;;;;;;;3.25;2.95;;;31.80;46.10;;;;;;4691383;30;20365;-82
2021/06/27 11:44:24;;;;;;;4.30;3.13;;;32.20;42.90;;;;;;4677485;30;20041;-82
2021/06/27 11:46:50;;;;;;;3.45;2.40;;;32.30;42.80;;;;;;4677740;30;20129;-85
2021/06/27 11:49:25;;;;;;;3.33;2.67;;;32.30;40.80;;;;;;4662058;30;20129;-83
2021/06/27 11:51:52;;;;;;;7.50;3.13;;;32.30;43.90;;;;;;4676356;30;20042;-82
2021/06/27 11:54:24;;;;;;;4.93;2.50;;;32.50;43.00;;;;;;4674233;30;20030;-82
2021/06/27 11:57:00;;;;;;;2.55;2.33;;;32.90;41.60;;;;;;4659583;30;20054;-80
2021/06/27 11:59:29;;;;;;;3.47;2.70;;;33.30;40.60;;;;;;4673576;30;20042;-81
2021/06/27 12:02:18;;;;;;;2.95;2.20;;;33.50;38.10;;;;;;4675710;30;20038;-79
2021/06/27 12:04:52;;;;;;;4.45;2.00;;;33.50;39.70;;;;;;4671884;30;20070;-80
2021/06/27 12:07:28;;;;;;;7.50;2.33;;;33.60;38.10;;;;;;4659431;30;20037;-76
2021/06/27 12:09:55;;;;;;;;;;;33.80;39.00;;;;;;4670622;30;20046;-75
2021/06/27 12:12:32;;;;;;;;;;;33.90;41.60;;;;;;4664476;30;20007;-78
2021/06/27 12:14:58;;;;;;;4.80;2.67;;;34.00;40.40;;;;;;4670028;30;19999;-78
2021/06/27 12:17:27;;;;;;;5.27;2.57;;;34.10;41.10;;;;;;4663453;30;20039;-77
2021/06/27 12:19:54;;;;;;;6.78;3.20;;;34.10;41.30;;;;;;4658996;30;20326;-77
2021/06/27 12:22:20;;;;;;;6.63;3.28;;;33.70;36.80;;;;;;4683507;30;20045;-77
2021/06/27 12:24:46;;;;;;;3.60;2.63;;;33.30;39.60;;;;;;4662285;30;20325;-77
2021/06/27 12:27:13;;;;;;;15.00;2.83;;;33.10;39.90;;;;;;4670350;30;20038;-76
2021/06/27 12:29:55;;;;;;;3.67;2.42;;;33.20;40.80;;;;;;4668246;30;20038;-76
2021/06/27 12:32:21;;;;;;;4.28;2.78;;;33.50;39.60;;;;;;4672009;30;20226;-78
2021/06/27 12:34:48;;;;;;;5.75;2.60;;;33.70;41.40;;;;;;4669229;30;20210;-77
2021/06/27 12:37:14;;;;;;;6.22;2.97;;;33.90;40.20;;;;;;4670528;30;20033;-77
2021/06/27 12:39:40;;;;;;;2.60;2.40;;;34.10;40.20;;;;;;4675003;30;20034;-77
2021/06/27 12:42:11;;;;;;;4.20;2.33;;;34.20;39.00;;;;;;4669222;30;20038;-75
2021/06/27 12:44:38;;;;;;;9.00;2.15;;;34.30;35.60;;;;;;4665804;30;20030;-76
2021/06/27 12:47:04;;;;;;;6.13;2.90;;;34.30;38.40;;;;;;4671585;30;20085;-76
2021/06/27 12:49:37;;;;;;;16.73;4.32;;;34.20;36.70;;;;;;4674515;30;20245;-78
2021/06/27 12:52:11;;;;;;;2.78;2.53;;;33.60;38.60;;;;;;4671199;30;20050;-77
2021/06/27 12:54:44;;;;;;;2.72;1.95;;;33.10;39.80;;;;;;4662127;30;20043;-78
2021/06/27 12:57:17;;;;;;;3.42;2.20;;;33.00;38.90;;;;;;4688005;30;20035;-78
2021/06/27 12:59:43;;;;;;;3.35;2.40;;;32.90;37.70;;;;;;4687566;30;20045;-79
2021/06/27 13:02:17;;;;;;;;;;;33.00;39.70;;;;;;4684434;30;20046;-77
2021/06/27 13:04:46;;;;;;;2.65;2.22;;;33.10;37.40;;;;;;4668242;30;19912;-77
2021/06/27 13:07:24;;;;;;;8.82;2.40;;;32.60;40.80;;;;;;4673589;30;20349;-78
2021/06/27 13:10:19;;;;;;;3.10;2.40;;;32.60;41.90;;;;;;4674249;30;20073;-77
2021/06/27 13:13:16;;;;;;;2.15;1.90;;;32.80;38.30;;;;;;4668700;30;20038;-75
2021/06/27 13:15:43;;;;;;;3.75;2.50;;;33.10;38.30;;;;;;4685908;30;20039;-78
2021/06/27 13:18:12;;;;;;;5.30;2.72;;;33.20;39.50;;;;;;4668130;30;20041;-77
2021/06/27 13:20:39;;;;;;;7.03;2.38;;;33.00;36.60;;;;;;4663176;30;20112;-75
2021/06/27 13:23:06;;;;;;;3.58;2.17;;;32.70;38.50;;;;;;4653433;30;20059;-74
2021/06/27 13:25:47;;;;;;;3.58;2.50;;;32.50;37.90;;;;;;4682211;30;20027;-75
2021/06/27 13:28:41;;;;;;;4.53;2.28;;;32.30;38.40;;;;;;4670662;30;20031;-75
2021/06/27 13:31:07;;;;;;;3.53;2.13;;;32.10;37.70;;;;;;4687829;30;20064;-75
2021/06/27 13:33:42;;;;;;;3.73;2.77;;;32.20;39.00;;;;;;4674099;30;20077;-75
2021/06/27 13:36:11;;;;;;;5.28;2.63;;;32.30;37.90;;;;;;4687455;30;20038;-75
2021/06/27 13:39:01;;;;;;;2.85;2.08;;;32.60;39.80;;;;;;4678705;30;20077;-75
2021/06/27 13:41:29;;;;;;;3.38;2.15;;;32.80;40.10;;;;;;4688367;30;20037;-75
2021/06/27 13:43:59;;;;;;;5.10;3.10;;;32.90;37.00;;;;;;4685624;30;20651;-75
2021/06/27 13:46:25;;;;;;;2.97;2.35;;;33.20;36.70;;;;;;4658632;30;20054;-76
2021/06/27 13:48:51;;;;;;;3.45;2.53;;;33.30;38.30;;;;;;4689112;30;20109;-76
2021/06/27 13:51:18;;;;;;;1.73;1.63;;;33.20;36.50;;;;;;4691041;30;20325;-74
2021/06/27 13:53:44;;;;;;;7.68;3.88;;;33.00;37.40;;;;;;4691931;30;20030;-75
2021/06/27 13:56:17;;;;;;;4.32;2.38;;;33.20;38.90;;;;;;4684144;30;20095;-76
2021/06/27 13:58:51;;;;;;;7.72;1.92;;;33.40;37.20;;;;;;4692077;30;20034;-75
2021/06/27 14:01:25;;;;;;;4.60;2.30;;;33.50;36.90;;;;;;4679978;30;20050;-76
2021/06/27 14:03:51;;;;;;;2.47;2.10;;;33.70;37.20;;;;;;4691047;30;20038;-76
2021/06/27 14:06:18;;;;;;;3.55;2.25;;;34.00;36.90;;;;;;4690002;30;20176;-76
2021/06/27 14:08:45;;;;;;;3.47;2.00;;;34.10;36.30;;;;;;4678532;30;20124;-76
2021/06/27 14:11:11;;;;;;;2.10;1.90;;;33.90;35.80;;;;;;4670238;30;20046;-76
2021/06/27 14:13:38;;;;;;;;;;;33.80;37.40;;;;;;4688299;30;20038;-75
2021/06/27 14:16:04;;;;;;;;;;;33.80;35.40;;;;;;4685661;30;19912;-76
2021/06/27 14:18:30;;;;;;;3.83;1.80;;;34.00;33.70;;;;;;4675124;30;19914;-75
2021/06/27 14:20:56;;;;;;;2.47;1.80;;;33.80;36.50;;;;;;4673040;30;20031;-75
2021/06/27 14:23:22;;;;;;;2.90;1.70;;;33.80;34.70;;;;;;4675644;30;20042;-76
2021/06/27 14:25:49;;;;;;;2.28;1.90;;;33.80;34.70;;;;;;4668428;30;20346;-76
2021/06/27 14:28:16;;;;;;;4.38;2.30;;;33.80;34.70;;;;;;4674769;30;20038;-76
2021/06/27 14:30:43;;;;;;;4.53;1.90;;;33.80;36.70;;;;;;4672645;30;20048;-77
2021/06/27 14:33:09;;;;;;;5.28;1.70;;;33.80;35.10;;;;;;4675879;30;20046;-75
2021/06/27 14:35:35;;;;;;;;;;;33.70;34.20;;;;;;4668800;30;20031;-75
2021/06/27 14:38:01;;;;;;;1.60;1.50;;;33.50;34.00;;;;;;4676106;30;20165;-76
2021/06/27 14:40:27;;;;;;;2.30;1.70;;;33.30;34.50;;;;;;4660587;30;20377;-76
2021/06/27 14:42:53;;;;;;;1.53;1.20;;;33.10;33.00;;;;;;4673642;30;20073;-76
2021/06/27 14:45:20;;;;;;;1.97;1.80;;;33.00;33.60;;;;;;4679860;30;20281;-76
2021/06/27 14:47:46;;;;;;;1.70;1.60;;;33.00;32.90;;;;;;4665860;30;20057;-76
2021/06/27 14:50:12;;;;;;;6.43;1.70;;;33.00;33.50;;;;;;4689532;30;20046;-76
2021/06/27 14:52:38;;;;;;;1.80;1.55;;;33.00;35.20;;;;;;4673336;30;20019;-76
2021/06/27 14:55:04;;;;;;;2.40;1.50;;;33.00;34.40;;;;;;4674755;30;20090;-75
2021/06/27 14:57:30;;;;;;;;;;;33.10;34.80;;;;;;4665037;30;20058;-76
2021/06/27 14:59:56;;;;;;;;;;;33.30;34.00;;;;;;4662122;30;19919;-76
2021/06/27 15:02:22;;;;;;;3.20;1.50;;;33.50;34.40;;;;;;4674544;30;20095;-76
2021/06/27 15:04:48;;;;;;;1.90;1.70;;;33.70;33.60;;;;;;4673667;30;20023;-76
2021/06/27 15:07:15;;;;;;;7.17;2.30;;;33.90;34.60;;;;;;4675327;30;20101;-76
2021/06/27 15:09:41;;;;;;;6.97;1.38;;;34.10;33.80;;;;;;4685786;30;20234;-76
2021/06/27 15:12:07;;;;;;;;;;;34.10;33.90;;;;;;4671698;30;20038;-76
2021/06/27 15:14:33;;;;;;;2.28;1.95;;;34.10;33.10;;;;;;4677584;30;20015;-76
2021/06/27 15:17:00;;;;;;;3.23;2.30;;;34.00;33.40;;;;;;4672822;30;20049;-76
2021/06/27 15:19:26;;;;;;;2.15;1.80;;;34.10;33.60;;;;;;4675907;30;20045;-76
2021/06/27 15:21:52;;;;;;;2.95;1.80;;;34.10;32.70;;;;;;4685133;30;20042;-76
2021/06/27 15:24:18;;;;;;;4.70;2.20;;;34.10;32.80;;;;;;4668075;30;20084;-75
2021/06/27 15:26:44;;;;;;;2.50;1.67;;;34.20;33.70;;;;;;4683806;30;20109;-76
2021/06/27 15:29:13;;;;;;;2.60;1.70;;;34.20;33.40;;;;;;4673410;30;20031;-75
2021/06/27 15:31:40;;;;;;;3.63;1.85;;;34.10;32.40;;;;;;4684260;30;20049;-75
2021/06/27 15:34:05;;;;;;;1.80;1.58;;;34.10;31.50;;;;;;4682161;30;20034;-76
2021/06/27 15:36:31;;;;;;;13.60;4.37;;;34.10;32.40;;;;;;4676062;30;20075;-78
2021/06/27 15:38:59;;;;;;;5.93;2.47;;;34.00;34.00;;;;;;4676149;30;20037;-80